sensor_id;sensor_type;location;lat;lon;timestamp;temperature;humidity
22607;DHT22;11470;20.968;105.834;2023-07-31T00:04:23;28.10;99.90
22607;DHT22;11470;20.968;105.834;2023-07-31T00:09:29;28.00;99.90
22607;DHT22;11470;20.968;105.834;2023-07-31T00:14:35;28.10;99.90
22607;DHT22;11470;20.968;105.834;2023-07-31T00:19:41;28.20;99.90
22607;DHT22;11470;20.968;105.834;2023-07-31T00:24:47;28.40;99.90
22607;DHT22;11470;20.968;105.834;2023-07-31T00:29:56;28.60;99.90
22607;DHT22;11470;20.968;105.834;2023-07-31T00:35:02;28.90;99.90
22607;DHT22;11470;20.968;105.834;2023-07-31T00:40:09;29.30;99.90
22607;DHT22;11470;20.968;105.834;2023-07-31T00:45:15;29.90;99.90
22607;DHT22;11470;20.968;105.834;2023-07-31T00:50:28;30.20;99.90
22607;DHT22;11470;20.968;105.834;2023-07-31T00:55:35;30.70;99.90
22607;DHT22;11470;20.968;105.834;2023-07-31T01:00:42;31.30;99.90
22607;DHT22;11470;20.968;105.834;2023-07-31T01:11:24;31.80;99.90
22607;DHT22;11470;20.968;105.834;2023-07-31T01:16:31;32.20;99.90
22607;DHT22;11470;20.968;105.834;2023-07-31T01:27:14;32.40;99.90
22607;DHT22;11470;20.968;105.834;2023-07-31T01:32:21;32.90;99.90
22607;DHT22;11470;20.968;105.834;2023-07-31T01:37:29;33.20;99.90
22607;DHT22;11470;20.968;105.834;2023-07-31T01:42:35;33.20;99.90
22607;DHT22;11470;20.968;105.834;2023-07-31T01:47:42;33.50;99.90
22607;DHT22;11470;20.968;105.834;2023-07-31T01:52:48;33.90;99.90
22607;DHT22;11470;20.968;105.834;2023-07-31T01:57:54;34.30;99.90
22607;DHT22;11470;20.968;105.834;2023-07-31T02:03:00;34.80;99.90
22607;DHT22;11470;20.968;105.834;2023-07-31T02:08:07;34.40;99.90
22607;DHT22;11470;20.968;105.834;2023-07-31T02:13:13;34.00;99.90
22607;DHT22;11470;20.968;105.834;2023-07-31T02:18:20;34.50;99.90
22607;DHT22;11470;20.968;105.834;2023-07-31T02:23:27;35.00;99.90
22607;DHT22;11470;20.968;105.834;2023-07-31T02:28:34;35.50;99.90
22607;DHT22;11470;20.968;105.834;2023-07-31T02:33:39;35.70;99.90
22607;DHT22;11470;20.968;105.834;2023-07-31T02:38:46;35.50;99.90
22607;DHT22;11470;20.968;105.834;2023-07-31T02:43:52;35.60;99.90
22607;DHT22;11470;20.968;105.834;2023-07-31T02:48:59;35.70;99.90
22607;DHT22;11470;20.968;105.834;2023-07-31T02:54:05;35.70;99.90
22607;DHT22;11470;20.968;105.834;2023-07-31T02:59:12;36.10;99.90
22607;DHT22;11470;20.968;105.834;2023-07-31T03:04:17;36.00;99.90
22607;DHT22;11470;20.968;105.834;2023-07-31T03:09:24;35.40;99.90
22607;DHT22;11470;20.968;105.834;2023-07-31T03:14:30;35.20;99.90
22607;DHT22;11470;20.968;105.834;2023-07-31T03:19:40;35.60;99.90
22607;DHT22;11470;20.968;105.834;2023-07-31T03:24:46;36.20;99.90
22607;DHT22;11470;20.968;105.834;2023-07-31T03:29:58;36.90;99.90
22607;DHT22;11470;20.968;105.834;2023-07-31T03:35:06;37.00;99.90
22607;DHT22;11470;20.968;105.834;2023-07-31T03:40:13;36.50;99.90
22607;DHT22;11470;20.968;105.834;2023-07-31T03:45:20;36.80;99.90
22607;DHT22;11470;20.968;105.834;2023-07-31T03:50:26;37.10;99.90
22607;DHT22;11470;20.968;105.834;2023-07-31T03:55:32;36.90;99.90
22607;DHT22;11470;20.968;105.834;2023-07-31T04:00:40;37.10;99.90
22607;DHT22;11470;20.968;105.834;2023-07-31T04:05:46;36.60;99.90
22607;DHT22;11470;20.968;105.834;2023-07-31T04:10:53;36.30;99.90
22607;DHT22;11470;20.968;105.834;2023-07-31T04:15:59;36.60;99.90
22607;DHT22;11470;20.968;105.834;2023-07-31T04:21:05;36.50;99.90
22607;DHT22;11470;20.968;105.834;2023-07-31T04:26:11;37.00;99.90
22607;DHT22;11470;20.968;105.834;2023-07-31T04:31:17;37.20;99.90
22607;DHT22;11470;20.968;105.834;2023-07-31T04:36:24;37.60;99.90
22607;DHT22;11470;20.968;105.834;2023-07-31T04:41:30;37.90;99.90
22607;DHT22;11470;20.968;105.834;2023-07-31T04:46:37;38.00;99.90
22607;DHT22;11470;20.968;105.834;2023-07-31T04:51:43;38.90;99.90
22607;DHT22;11470;20.968;105.834;2023-07-31T04:56:50;40.50;99.90
22607;DHT22;11470;20.968;105.834;2023-07-31T05:01:57;40.80;99.90
22607;DHT22;11470;20.968;105.834;2023-07-31T05:07:03;39.90;99.90
22607;DHT22;11470;20.968;105.834;2023-07-31T05:12:10;39.80;99.90
22607;DHT22;11470;20.968;105.834;2023-07-31T05:17:16;41.50;96.30
22607;DHT22;11470;20.968;105.834;2023-07-31T05:22:22;40.50;99.10
22607;DHT22;11470;20.968;105.834;2023-07-31T05:27:30;41.10;98.10
22607;DHT22;11470;20.968;105.834;2023-07-31T05:32:36;39.40;99.10
22607;DHT22;11470;20.968;105.834;2023-07-31T05:37:43;39.80;99.90
22607;DHT22;11470;20.968;105.834;2023-07-31T05:42:48;40.90;98.40
22607;DHT22;11470;20.968;105.834;2023-07-31T05:47:55;39.60;99.90
22607;DHT22;11470;20.968;105.834;2023-07-31T05:53:01;39.30;99.90
22607;DHT22;11470;20.968;105.834;2023-07-31T05:58:07;38.50;99.90
22607;DHT22;11470;20.968;105.834;2023-07-31T06:03:14;37.20;99.90
22607;DHT22;11470;20.968;105.834;2023-07-31T06:08:21;36.60;99.90
22607;DHT22;11470;20.968;105.834;2023-07-31T06:13:27;37.90;99.90
22607;DHT22;11470;20.968;105.834;2023-07-31T06:18:36;37.20;99.90
22607;DHT22;11470;20.968;105.834;2023-07-31T06:23:42;36.00;99.90
22607;DHT22;11470;20.968;105.834;2023-07-31T06:28:48;35.30;99.90
22607;DHT22;11470;20.968;105.834;2023-07-31T06:33:54;34.40;99.90
22607;DHT22;11470;20.968;105.834;2023-07-31T06:39:01;33.10;99.90
22607;DHT22;11470;20.968;105.834;2023-07-31T06:44:06;31.10;99.90
22607;DHT22;11470;20.968;105.834;2023-07-31T06:49:13;29.10;99.90
22607;DHT22;11470;20.968;105.834;2023-07-31T06:54:20;28.50;99.90
22607;DHT22;11470;20.968;105.834;2023-07-31T06:59:26;28.10;99.90
22607;DHT22;11470;20.968;105.834;2023-07-31T07:04:32;27.40;99.90
22607;DHT22;11470;20.968;105.834;2023-07-31T07:09:38;28.00;99.90
22607;DHT22;11470;20.968;105.834;2023-07-31T07:14:44;28.50;99.90
22607;DHT22;11470;20.968;105.834;2023-07-31T07:19:54;27.30;99.90
22607;DHT22;11470;20.968;105.834;2023-07-31T07:25:01;27.10;99.90
22607;DHT22;11470;20.968;105.834;2023-07-31T07:30:10;26.50;99.90
22607;DHT22;11470;20.968;105.834;2023-07-31T07:35:17;25.60;99.90
22607;DHT22;11470;20.968;105.834;2023-07-31T07:40:23;25.00;99.90
22607;DHT22;11470;20.968;105.834;2023-07-31T07:45:29;24.90;99.90
22607;DHT22;11470;20.968;105.834;2023-07-31T07:50:38;24.70;99.90
22607;DHT22;11470;20.968;105.834;2023-07-31T07:55:44;24.70;99.90
22607;DHT22;11470;20.968;105.834;2023-07-31T08:00:57;24.90;99.90
22607;DHT22;11470;20.968;105.834;2023-07-31T08:06:03;25.10;99.90
22607;DHT22;11470;20.968;105.834;2023-07-31T08:11:09;25.10;99.90
22607;DHT22;11470;20.968;105.834;2023-07-31T08:16:15;24.90;99.90
22607;DHT22;11470;20.968;105.834;2023-07-31T08:21:22;25.00;99.90
22607;DHT22;11470;20.968;105.834;2023-07-31T08:26:32;24.90;99.90
22607;DHT22;11470;20.968;105.834;2023-07-31T08:31:41;25.10;99.90
22607;DHT22;11470;20.968;105.834;2023-07-31T08:36:48;25.10;99.90
22607;DHT22;11470;20.968;105.834;2023-07-31T08:41:58;25.10;99.90
22607;DHT22;11470;20.968;105.834;2023-07-31T08:47:06;25.00;99.90
22607;DHT22;11470;20.968;105.834;2023-07-31T08:52:12;25.10;99.90
22607;DHT22;11470;20.968;105.834;2023-07-31T08:57:18;25.10;99.90
22607;DHT22;11470;20.968;105.834;2023-07-31T09:02:28;25.00;99.90
22607;DHT22;11470;20.968;105.834;2023-07-31T09:07:38;25.20;99.90
22607;DHT22;11470;20.968;105.834;2023-07-31T09:12:45;25.40;99.90
22607;DHT22;11470;20.968;105.834;2023-07-31T09:17:59;25.30;99.90
22607;DHT22;11470;20.968;105.834;2023-07-31T09:23:13;25.20;99.90
22607;DHT22;11470;20.968;105.834;2023-07-31T09:28:31;25.20;99.90
22607;DHT22;11470;20.968;105.834;2023-07-31T09:33:54;25.40;99.90
22607;DHT22;11470;20.968;105.834;2023-07-31T09:39:04;25.40;99.90
22607;DHT22;11470;20.968;105.834;2023-07-31T09:44:11;25.50;99.90
22607;DHT22;11470;20.968;105.834;2023-07-31T09:49:17;25.60;99.90
22607;DHT22;11470;20.968;105.834;2023-07-31T09:54:24;25.40;99.90
22607;DHT22;11470;20.968;105.834;2023-07-31T09:59:30;25.50;99.90
22607;DHT22;11470;20.968;105.834;2023-07-31T10:04:36;25.40;99.90
22607;DHT22;11470;20.968;105.834;2023-07-31T10:09:43;25.40;99.90
22607;DHT22;11470;20.968;105.834;2023-07-31T10:14:54;25.40;99.90
22607;DHT22;11470;20.968;105.834;2023-07-31T10:20:00;25.50;99.90
22607;DHT22;11470;20.968;105.834;2023-07-31T10:25:10;25.40;99.90
22607;DHT22;11470;20.968;105.834;2023-07-31T10:30:18;25.20;99.90
22607;DHT22;11470;20.968;105.834;2023-07-31T10:35:26;25.30;99.90
22607;DHT22;11470;20.968;105.834;2023-07-31T10:40:33;25.40;99.90
22607;DHT22;11470;20.968;105.834;2023-07-31T10:45:42;25.50;99.90
22607;DHT22;11470;20.968;105.834;2023-07-31T10:50:57;25.10;99.90
22607;DHT22;11470;20.968;105.834;2023-07-31T10:56:09;25.00;99.90
22607;DHT22;11470;20.968;105.834;2023-07-31T11:01:17;25.00;99.90
22607;DHT22;11470;20.968;105.834;2023-07-31T11:06:30;25.10;99.90
22607;DHT22;11470;20.968;105.834;2023-07-31T11:11:36;25.10;99.90
22607;DHT22;11470;20.968;105.834;2023-07-31T11:16:43;25.00;99.90
22607;DHT22;11470;20.968;105.834;2023-07-31T11:21:55;25.10;99.90
22607;DHT22;11470;20.968;105.834;2023-07-31T11:27:08;25.10;99.90
22607;DHT22;11470;20.968;105.834;2023-07-31T11:32:17;25.10;99.90
22607;DHT22;11470;20.968;105.834;2023-07-31T11:37:25;25.20;99.90
22607;DHT22;11470;20.968;105.834;2023-07-31T11:42:44;25.20;99.90
22607;DHT22;11470;20.968;105.834;2023-07-31T11:47:50;25.30;99.90
22607;DHT22;11470;20.968;105.834;2023-07-31T11:53:00;25.20;99.90
22607;DHT22;11470;20.968;105.834;2023-07-31T11:58:07;25.30;99.90
22607;DHT22;11470;20.968;105.834;2023-07-31T12:03:14;25.40;99.90
22607;DHT22;11470;20.968;105.834;2023-07-31T12:08:24;25.50;99.90
22607;DHT22;11470;20.968;105.834;2023-07-31T12:13:32;25.20;99.90
22607;DHT22;11470;20.968;105.834;2023-07-31T12:18:39;25.10;99.90
22607;DHT22;11470;20.968;105.834;2023-07-31T12:23:45;25.30;99.90
22607;DHT22;11470;20.968;105.834;2023-07-31T12:28:55;25.30;99.90
22607;DHT22;11470;20.968;105.834;2023-07-31T12:34:01;25.30;99.90
22607;DHT22;11470;20.968;105.834;2023-07-31T12:39:08;25.40;99.90
22607;DHT22;11470;20.968;105.834;2023-07-31T12:44:17;25.40;99.90
22607;DHT22;11470;20.968;105.834;2023-07-31T12:49:35;25.30;99.90
22607;DHT22;11470;20.968;105.834;2023-07-31T12:54:41;25.40;99.90
22607;DHT22;11470;20.968;105.834;2023-07-31T12:59:48;25.40;99.90
22607;DHT22;11470;20.968;105.834;2023-07-31T13:04:54;25.40;99.90
22607;DHT22;11470;20.968;105.834;2023-07-31T13:10:02;25.30;99.90
22607;DHT22;11470;20.968;105.834;2023-07-31T13:15:08;25.30;99.90
22607;DHT22;11470;20.968;105.834;2023-07-31T13:20:15;25.30;99.90
22607;DHT22;11470;20.968;105.834;2023-07-31T13:25:21;25.20;99.90
22607;DHT22;11470;20.968;105.834;2023-07-31T13:30:27;25.30;99.90
22607;DHT22;11470;20.968;105.834;2023-07-31T13:35:35;25.40;99.90
22607;DHT22;11470;20.968;105.834;2023-07-31T13:40:42;25.30;99.90
22607;DHT22;11470;20.968;105.834;2023-07-31T13:45:48;25.40;99.90
22607;DHT22;11470;20.968;105.834;2023-07-31T13:51:03;25.40;99.90
22607;DHT22;11470;20.968;105.834;2023-07-31T13:56:09;25.40;99.90
22607;DHT22;11470;20.968;105.834;2023-07-31T14:01:17;25.40;99.90
22607;DHT22;11470;20.968;105.834;2023-07-31T14:06:30;25.40;99.90
22607;DHT22;11470;20.968;105.834;2023-07-31T14:11:42;25.40;99.90
22607;DHT22;11470;20.968;105.834;2023-07-31T14:16:48;25.50;99.90
22607;DHT22;11470;20.968;105.834;2023-07-31T14:22:00;25.50;99.90
22607;DHT22;11470;20.968;105.834;2023-07-31T14:27:14;25.50;99.90
22607;DHT22;11470;20.968;105.834;2023-07-31T14:32:22;25.50;99.90
22607;DHT22;11470;20.968;105.834;2023-07-31T14:38:00;25.50;99.90
22607;DHT22;11470;20.968;105.834;2023-07-31T14:43:10;25.50;99.90
22607;DHT22;11470;20.968;105.834;2023-07-31T14:48:17;25.50;99.90
22607;DHT22;11470;20.968;105.834;2023-07-31T14:53:24;25.50;99.90
22607;DHT22;11470;20.968;105.834;2023-07-31T14:58:32;25.40;99.90
22607;DHT22;11470;20.968;105.834;2023-07-31T15:03:39;25.40;99.90
22607;DHT22;11470;20.968;105.834;2023-07-31T15:08:46;25.40;99.90
22607;DHT22;11470;20.968;105.834;2023-07-31T15:13:53;25.40;99.90
22607;DHT22;11470;20.968;105.834;2023-07-31T15:19:00;25.40;99.90
22607;DHT22;11470;20.968;105.834;2023-07-31T15:24:06;25.40;99.90
22607;DHT22;11470;20.968;105.834;2023-07-31T15:29:13;25.40;99.90
22607;DHT22;11470;20.968;105.834;2023-07-31T15:34:25;25.50;99.90
22607;DHT22;11470;20.968;105.834;2023-07-31T15:39:32;25.50;99.90
22607;DHT22;11470;20.968;105.834;2023-07-31T15:44:41;25.50;99.90
22607;DHT22;11470;20.968;105.834;2023-07-31T15:49:49;25.50;99.90
22607;DHT22;11470;20.968;105.834;2023-07-31T15:55:11;25.60;99.90
22607;DHT22;11470;20.968;105.834;2023-07-31T16:00:21;25.60;99.90
22607;DHT22;11470;20.968;105.834;2023-07-31T16:05:33;25.70;99.90
22607;DHT22;11470;20.968;105.834;2023-07-31T16:10:40;25.70;99.90
22607;DHT22;11470;20.968;105.834;2023-07-31T16:15:47;25.80;99.90
22607;DHT22;11470;20.968;105.834;2023-07-31T16:20:54;25.80;99.90
22607;DHT22;11470;20.968;105.834;2023-07-31T16:26:00;25.80;99.90
22607;DHT22;11470;20.968;105.834;2023-07-31T16:31:07;25.90;99.90
22607;DHT22;11470;20.968;105.834;2023-07-31T16:36:14;25.80;99.90
22607;DHT22;11470;20.968;105.834;2023-07-31T16:41:24;25.80;99.90
22607;DHT22;11470;20.968;105.834;2023-07-31T16:46:34;25.80;99.90
22607;DHT22;11470;20.968;105.834;2023-07-31T16:51:41;25.70;99.90
22607;DHT22;11470;20.968;105.834;2023-07-31T16:56:48;25.70;99.90
22607;DHT22;11470;20.968;105.834;2023-07-31T17:02:06;25.70;99.90
22607;DHT22;11470;20.968;105.834;2023-07-31T17:07:15;25.70;99.90
22607;DHT22;11470;20.968;105.834;2023-07-31T17:12:22;25.80;99.90
22607;DHT22;11470;20.968;105.834;2023-07-31T17:17:28;25.80;99.90
22607;DHT22;11470;20.968;105.834;2023-07-31T17:22:35;25.90;99.90
22607;DHT22;11470;20.968;105.834;2023-07-31T17:27:51;26.00;99.90
22607;DHT22;11470;20.968;105.834;2023-07-31T17:33:00;26.00;99.90
22607;DHT22;11470;20.968;105.834;2023-07-31T17:38:07;26.00;99.90
22607;DHT22;11470;20.968;105.834;2023-07-31T17:43:14;26.00;99.90
22607;DHT22;11470;20.968;105.834;2023-07-31T17:48:21;26.00;99.90
22607;DHT22;11470;20.968;105.834;2023-07-31T17:53:27;26.00;99.90
22607;DHT22;11470;20.968;105.834;2023-07-31T17:58:35;26.00;99.90
22607;DHT22;11470;20.968;105.834;2023-07-31T18:03:41;26.00;99.90
22607;DHT22;11470;20.968;105.834;2023-07-31T18:08:48;26.00;99.90
22607;DHT22;11470;20.968;105.834;2023-07-31T18:13:55;26.00;99.90
22607;DHT22;11470;20.968;105.834;2023-07-31T18:19:02;26.00;99.90
22607;DHT22;11470;20.968;105.834;2023-07-31T18:24:09;25.90;99.90
22607;DHT22;11470;20.968;105.834;2023-07-31T18:29:15;25.90;99.90
22607;DHT22;11470;20.968;105.834;2023-07-31T18:34:21;25.90;99.90
22607;DHT22;11470;20.968;105.834;2023-07-31T18:39:29;25.90;99.90
22607;DHT22;11470;20.968;105.834;2023-07-31T18:44:35;25.90;99.90
22607;DHT22;11470;20.968;105.834;2023-07-31T18:49:42;26.00;99.90
22607;DHT22;11470;20.968;105.834;2023-07-31T18:54:49;26.00;99.90
22607;DHT22;11470;20.968;105.834;2023-07-31T18:59:55;26.10;99.90
22607;DHT22;11470;20.968;105.834;2023-07-31T19:05:02;26.10;99.90
22607;DHT22;11470;20.968;105.834;2023-07-31T19:10:09;26.00;99.90
22607;DHT22;11470;20.968;105.834;2023-07-31T19:15:20;26.10;99.90
22607;DHT22;11470;20.968;105.834;2023-07-31T19:20:26;26.00;99.90
22607;DHT22;11470;20.968;105.834;2023-07-31T19:25:33;26.10;99.90
22607;DHT22;11470;20.968;105.834;2023-07-31T19:30:40;26.10;99.90
22607;DHT22;11470;20.968;105.834;2023-07-31T19:36:00;26.00;99.90
22607;DHT22;11470;20.968;105.834;2023-07-31T19:41:07;26.00;99.90
22607;DHT22;11470;20.968;105.834;2023-07-31T19:46:14;26.00;99.90
22607;DHT22;11470;20.968;105.834;2023-07-31T19:51:21;26.00;99.90
22607;DHT22;11470;20.968;105.834;2023-07-31T19:56:27;26.00;99.90
22607;DHT22;11470;20.968;105.834;2023-07-31T20:01:34;26.00;99.90
22607;DHT22;11470;20.968;105.834;2023-07-31T20:06:40;26.00;99.90
22607;DHT22;11470;20.968;105.834;2023-07-31T20:11:47;26.00;99.90
22607;DHT22;11470;20.968;105.834;2023-07-31T20:16:57;26.00;99.90
22607;DHT22;11470;20.968;105.834;2023-07-31T20:22:04;26.00;99.90
22607;DHT22;11470;20.968;105.834;2023-07-31T20:27:11;25.90;99.90
22607;DHT22;11470;20.968;105.834;2023-07-31T20:32:17;25.90;99.90
22607;DHT22;11470;20.968;105.834;2023-07-31T20:37:25;26.00;99.90
22607;DHT22;11470;20.968;105.834;2023-07-31T20:42:31;26.00;99.90
22607;DHT22;11470;20.968;105.834;2023-07-31T20:47:38;26.00;99.90
22607;DHT22;11470;20.968;105.834;2023-07-31T20:52:44;26.00;99.90
22607;DHT22;11470;20.968;105.834;2023-07-31T20:57:51;26.00;99.90
22607;DHT22;11470;20.968;105.834;2023-07-31T21:02:58;26.00;99.90
22607;DHT22;11470;20.968;105.834;2023-07-31T21:08:05;26.00;99.90
22607;DHT22;11470;20.968;105.834;2023-07-31T21:13:13;25.90;99.90
22607;DHT22;11470;20.968;105.834;2023-07-31T21:18:19;25.90;99.90
22607;DHT22;11470;20.968;105.834;2023-07-31T21:23:26;25.90;99.90
22607;DHT22;11470;20.968;105.834;2023-07-31T21:28:33;25.80;99.90
22607;DHT22;11470;20.968;105.834;2023-07-31T21:33:40;25.80;99.90
22607;DHT22;11470;20.968;105.834;2023-07-31T21:38:47;25.80;99.90
22607;DHT22;11470;20.968;105.834;2023-07-31T21:43:53;25.90;99.90
22607;DHT22;11470;20.968;105.834;2023-07-31T21:49:00;25.80;99.90
22607;DHT22;11470;20.968;105.834;2023-07-31T21:54:07;25.70;99.90
22607;DHT22;11470;20.968;105.834;2023-07-31T21:59:14;25.60;99.90
22607;DHT22;11470;20.968;105.834;2023-07-31T22:04:21;25.50;99.90
22607;DHT22;11470;20.968;105.834;2023-07-31T22:09:28;25.50;99.90
22607;DHT22;11470;20.968;105.834;2023-07-31T22:14:34;25.50;99.90
22607;DHT22;11470;20.968;105.834;2023-07-31T22:19:41;25.60;99.90
22607;DHT22;11470;20.968;105.834;2023-07-31T22:24:48;25.70;99.90
22607;DHT22;11470;20.968;105.834;2023-07-31T22:29:55;25.60;99.90
22607;DHT22;11470;20.968;105.834;2023-07-31T22:35:01;25.60;99.90
22607;DHT22;11470;20.968;105.834;2023-07-31T22:40:08;25.50;99.90
22607;DHT22;11470;20.968;105.834;2023-07-31T22:45:15;25.50;99.90
22607;DHT22;11470;20.968;105.834;2023-07-31T22:50:22;25.60;99.90
22607;DHT22;11470;20.968;105.834;2023-07-31T22:55:30;25.70;99.90
22607;DHT22;11470;20.968;105.834;2023-07-31T23:00:37;25.70;99.90
22607;DHT22;11470;20.968;105.834;2023-07-31T23:05:44;25.80;99.90
22607;DHT22;11470;20.968;105.834;2023-07-31T23:10:51;25.90;99.90
22607;DHT22;11470;20.968;105.834;2023-07-31T23:15:58;25.90;99.90
22607;DHT22;11470;20.968;105.834;2023-07-31T23:21:04;25.90;99.90
22607;DHT22;11470;20.968;105.834;2023-07-31T23:26:11;26.00;99.90
22607;DHT22;11470;20.968;105.834;2023-07-31T23:31:18;26.10;99.90
22607;DHT22;11470;20.968;105.834;2023-07-31T23:36:24;26.50;99.90
22607;DHT22;11470;20.968;105.834;2023-07-31T23:41:31;26.90;99.90
22607;DHT22;11470;20.968;105.834;2023-07-31T23:46:37;27.00;99.90
22607;DHT22;11470;20.968;105.834;2023-07-31T23:51:51;27.10;99.90
22607;DHT22;11470;20.968;105.834;2023-07-31T23:56:58;27.10;99.90
